createdAt,value
2023-05-17T00:02:18.804Z,3.97
2023-05-17T00:05:27.975Z,2.90
2023-05-17T00:10:52.096Z,2.55
2023-05-17T00:14:19.972Z,2.72
2023-05-17T00:16:58.198Z,2.90
2023-05-17T00:22:50.024Z,2.35
2023-05-17T00:25:20.109Z,2.67
2023-05-17T00:27:51.040Z,2.25
2023-05-17T00:33:52.733Z,2.90
2023-05-17T00:36:22.005Z,2.85
2023-05-17T00:38:56.468Z,2.35
2023-05-17T00:41:58.334Z,2.65
2023-05-17T00:47:54.353Z,2.30
2023-05-17T00:53:53.412Z,2.92
2023-05-17T00:56:57.556Z,2.33
2023-05-17T00:59:54.188Z,2.72
2023-05-17T01:02:26.354Z,2.92
2023-05-17T02:23:01.780Z,3.28
2023-05-17T02:28:02.612Z,3.27
2023-05-17T02:30:31.456Z,3.30
2023-05-17T02:33:02.905Z,3.55
2023-05-17T02:46:10.120Z,2.85
2023-05-17T02:48:50.643Z,2.90
2023-05-17T02:59:43.635Z,3.60
2023-05-17T03:03:03.299Z,3.38
2023-05-17T03:07:12.767Z,3.20
2023-05-17T03:10:04.308Z,3.30
2023-05-17T03:19:08.818Z,2.90
2023-05-17T03:25:13.672Z,3.15
2023-05-17T03:34:05.793Z,3.20
2023-05-17T03:37:06.526Z,3.63
2023-05-17T03:40:10.045Z,3.08
2023-05-17T03:46:09.313Z,2.95
2023-05-17T03:56:14.074Z,2.53
2023-05-17T03:59:11.931Z,2.80
2023-05-17T04:04:15.787Z,3.40
2023-05-17T04:07:08.961Z,3.83
2023-05-17T04:10:08.905Z,2.25
2023-05-17T04:16:09.094Z,3.25
2023-05-17T04:19:08.018Z,2.15
2023-05-17T04:25:09.369Z,3.95
2023-05-17T04:27:38.060Z,3.30
2023-05-17T04:30:17.040Z,3.67
2023-05-17T04:33:17.250Z,4.18
2023-05-17T04:39:08.785Z,3.42
2023-05-17T04:42:08.245Z,3.75
2023-05-17T04:48:08.558Z,4.10
2023-05-17T04:51:19.642Z,3.10
2023-05-17T04:58:10.548Z,3.35
2023-05-17T05:00:46.933Z,2.85
2023-05-17T05:03:40.898Z,2.80
2023-05-17T05:06:15.765Z,1.95
2023-05-17T05:11:41.949Z,2.15
2023-05-17T05:14:15.999Z,2.08
2023-05-17T05:27:42.117Z,1.60
2023-05-17T05:36:38.742Z,1.75
2023-05-17T05:39:42.612Z,1.67
2023-05-17T05:45:46.722Z,1.40
2023-05-17T05:48:42.768Z,2.33
2023-05-17T05:51:46.327Z,1.45
2023-05-17T05:54:46.233Z,1.50
2023-05-17T06:06:40.363Z,1.20
2023-05-17T06:09:43.227Z,1.52
2023-05-17T06:12:40.633Z,1.45
2023-05-17T06:15:46.073Z,1.33
2023-05-17T06:21:44.929Z,1.40
2023-05-17T06:24:47.248Z,1.20
2023-05-17T06:27:45.021Z,1.70
2023-05-17T06:30:43.146Z,1.30
2023-05-17T06:33:11.889Z,1.20
2023-05-17T06:35:54.807Z,1.30
2023-05-17T06:39:11.007Z,1.40
2023-05-17T06:41:43.182Z,1.38
2023-05-17T06:44:42.117Z,1.35
2023-05-17T06:47:12.546Z,1.50
2023-05-17T06:52:14.654Z,2.80
2023-05-17T06:57:13.440Z,2.65
2023-05-17T06:59:43.200Z,3.08
2023-05-17T07:02:14.744Z,2.83
2023-05-17T07:04:50.370Z,2.83
2023-05-17T07:07:45.130Z,3.25
2023-05-17T07:10:13.656Z,3.05
2023-05-17T07:15:14.992Z,2.90
2023-05-17T07:17:44.116Z,2.60
2023-05-17T07:20:19.370Z,2.35
2023-05-17T07:25:53.479Z,2.50
2023-05-17T07:28:54.108Z,2.20
2023-05-17T07:31:25.340Z,2.70
2023-05-17T07:39:16.234Z,3.08
2023-05-17T07:41:48.040Z,2.72
2023-05-17T07:47:46.649Z,2.35
2023-05-17T07:50:15.253Z,2.80
2023-05-17T07:52:45.238Z,2.53
2023-05-17T07:57:58.339Z,2.42
2023-05-17T08:00:45.548Z,2.65
2023-05-17T08:03:16.565Z,3.20
2023-05-17T08:05:53.213Z,2.50
2023-05-17T08:11:19.150Z,2.55
2023-05-17T08:13:47.896Z,2.50
2023-05-17T08:16:17.034Z,3.05
2023-05-17T08:18:47.911Z,2.90
2023-05-17T08:21:16.686Z,2.30
2023-05-17T08:23:53.382Z,2.30
2023-05-17T08:26:21.727Z,2.30
2023-05-17T08:28:52.473Z,2.10
2023-05-17T08:31:44.929Z,2.25
2023-05-17T08:34:19.870Z,2.22
2023-05-17T08:36:50.874Z,2.25
2023-05-17T08:42:49.531Z,2.83
2023-05-17T08:45:19.848Z,2.50
2023-05-17T08:47:48.507Z,2.30
2023-05-17T08:50:22.711Z,2.63
2023-05-17T08:52:52.299Z,2.30
2023-05-17T08:55:21.236Z,2.47
2023-05-17T08:59:25.312Z,2.67
2023-05-17T09:01:20.207Z,2.15
2023-05-17T09:04:19.814Z,2.30
2023-05-17T09:06:48.393Z,2.10
2023-05-17T09:09:19.737Z,2.60
2023-05-17T09:17:56.177Z,2.97
2023-05-17T09:27:26.471Z,2.33
2023-05-17T09:34:26.124Z,2.40
2023-05-17T09:37:21.785Z,2.60
2023-05-17T09:39:50.790Z,2.42
2023-05-17T09:42:19.427Z,2.20
2023-05-17T09:45:25.779Z,2.22
2023-05-17T09:48:20.618Z,2.63
2023-05-17T09:50:53.295Z,2.63
2023-05-17T09:54:18.796Z,2.40
2023-05-17T09:57:19.076Z,2.47
2023-05-17T09:59:49.847Z,2.50
2023-05-17T10:02:49.352Z,2.20
2023-05-17T10:05:22.082Z,2.70
2023-05-17T10:08:17.802Z,2.72
2023-05-17T10:10:52.209Z,2.22
2023-05-17T10:13:25.823Z,2.78
2023-05-17T10:18:51.479Z,2.28
2023-05-17T10:21:21.314Z,2.55
2023-05-17T10:23:56.459Z,2.17
2023-05-17T10:26:50.287Z,2.63
2023-05-17T10:29:50.937Z,2.30
2023-05-17T10:32:51.382Z,2.08
2023-05-17T10:42:06.817Z,2.30
2023-05-17T10:52:52.483Z,2.08
2023-05-17T10:55:53.574Z,2.20
2023-05-17T11:02:51.513Z,1.80
2023-05-17T11:12:53.863Z,1.67
2023-05-17T11:15:27.175Z,1.63
2023-05-17T11:17:57.280Z,2.22
2023-05-17T11:20:29.348Z,1.67
2023-05-17T11:23:23.729Z,1.60
2023-05-17T11:25:54.228Z,1.73
2023-05-17T11:29:51.808Z,1.73
2023-05-17T11:32:52.061Z,1.67
2023-05-17T11:35:55.330Z,1.70
2023-05-17T11:39:50.935Z,1.85
2023-05-17T11:47:51.963Z,1.90
2023-05-17T11:54:59.088Z,1.65
2023-05-17T11:57:54.148Z,1.95
2023-05-17T12:00:54.159Z,1.50
2023-05-17T12:03:56.438Z,1.60
2023-05-17T12:06:57.501Z,1.70
2023-05-17T12:09:57.224Z,2.13
2023-05-17T12:32:25.906Z,1.70
2023-05-17T12:35:59.257Z,1.53
2023-05-17T12:38:55.133Z,1.40
2023-05-17T12:41:56.338Z,1.40
2023-05-17T12:44:53.436Z,1.85
2023-05-17T12:47:59.194Z,1.60
2023-05-17T12:50:15.639Z,1.80
2023-05-17T12:52:54.299Z,1.65
2023-05-17T12:55:33.851Z,1.70
2023-05-17T12:58:05.609Z,1.60
2023-05-17T13:00:51.648Z,1.88
2023-05-17T13:06:21.786Z,2.25
2023-05-17T13:09:03.135Z,1.98
2023-05-17T13:11:47.374Z,2.20
2023-05-17T13:14:56.440Z,2.10
2023-05-17T13:17:54.357Z,2.75
2023-05-17T13:20:23.141Z,2.40
2023-05-17T13:22:54.888Z,2.10
2023-05-17T13:25:27.832Z,2.28
2023-05-17T13:27:59.091Z,2.50
2023-05-17T13:30:54.051Z,2.40
2023-05-17T13:33:25.592Z,2.95
2023-05-17T13:35:55.022Z,2.55
2023-05-17T13:38:26.742Z,2.38
2023-05-17T13:43:25.854Z,2.92
2023-05-17T13:48:26.507Z,2.92
2023-05-17T13:50:55.015Z,3.05
2023-05-17T13:53:23.408Z,3.08
2023-05-17T13:55:58.084Z,2.85
2023-05-17T13:58:26.498Z,3.15
2023-05-17T14:00:55.052Z,3.60
2023-05-17T14:03:26.659Z,3.40
2023-05-17T14:05:55.199Z,3.30
2023-05-17T14:08:57.371Z,3.63
2023-05-17T14:11:27.256Z,3.35
2023-05-17T14:13:55.710Z,3.10
2023-05-17T14:16:27.135Z,3.20
2023-05-17T14:21:26.865Z,2.70
2023-05-17T14:23:58.114Z,2.90
2023-05-17T14:26:27.051Z,2.55
2023-05-17T14:28:59.135Z,2.77
2023-05-17T14:34:56.833Z,2.35
2023-05-17T14:37:25.691Z,2.53
2023-05-17T14:42:28.572Z,2.90
2023-05-17T14:44:57.031Z,2.40
2023-05-17T14:47:26.120Z,2.53
2023-05-17T14:49:57.808Z,3.00
2023-05-17T14:52:26.978Z,3.70
2023-05-17T14:54:56.187Z,2.17
2023-05-17T14:57:28.183Z,2.05
2023-05-17T14:59:57.287Z,2.50
2023-05-17T15:02:27.966Z,2.53
2023-05-17T15:04:58.764Z,2.58
2023-05-17T15:07:27.553Z,2.67
2023-05-17T15:09:58.977Z,2.38
2023-05-17T15:17:59.945Z,2.30
2023-05-17T15:20:28.537Z,2.20
2023-05-17T15:22:57.704Z,2.55
2023-05-17T15:25:27.751Z,2.20
2023-05-17T15:27:59.113Z,2.30
2023-05-17T15:30:28.534Z,2.20
2023-05-17T15:36:01.221Z,2.25
2023-05-17T15:38:27.365Z,1.70
2023-05-17T15:41:06.880Z,2.05
2023-05-17T15:44:00.448Z,1.58
2023-05-17T15:46:29.361Z,2.17
2023-05-17T15:48:58.102Z,2.53
2023-05-17T15:51:28.046Z,2.40
2023-05-17T15:54:03.654Z,2.20
2023-05-17T16:01:00.617Z,2.00
2023-05-17T16:03:28.944Z,2.15
2023-05-17T16:08:28.097Z,2.15
2023-05-17T16:12:05.414Z,2.20
2023-05-17T16:19:28.061Z,1.90
2023-05-17T16:22:28.889Z,2.13
2023-05-17T16:25:29.669Z,2.33
2023-05-17T16:28:14.966Z,2.30
2023-05-17T16:30:58.608Z,2.30
2023-05-17T16:34:31.118Z,2.70
2023-05-17T16:37:32.109Z,2.20
2023-05-17T16:44:28.632Z,2.60
2023-05-17T16:48:28.953Z,3.05
2023-05-17T16:55:28.983Z,2.22
2023-05-17T16:58:33.850Z,2.30
2023-05-17T17:04:32.365Z,2.50
2023-05-17T17:10:59.315Z,2.30
2023-05-17T17:14:27.369Z,1.98
2023-05-17T17:16:34.109Z,1.90
2023-05-17T17:26:12.224Z,1.48
2023-05-17T17:28:58.309Z,1.67
2023-05-17T17:31:32.752Z,1.80
2023-05-17T17:35:29.702Z,1.70
2023-05-17T17:42:33.207Z,1.42
2023-05-17T17:45:40.795Z,1.20
2023-05-17T17:48:09.381Z,1.40
2023-05-17T17:50:40.730Z,1.17
2023-05-17T17:54:30.854Z,1.73
2023-05-17T17:57:32.010Z,1.70
2023-05-17T18:02:56.407Z,1.50
2023-05-17T18:05:34.509Z,1.60
2023-05-17T18:11:39.742Z,1.48
2023-05-17T18:14:36.826Z,1.30
2023-05-17T18:21:19.869Z,1.60
2023-05-17T18:30:38.588Z,1.80
2023-05-17T18:33:40.744Z,1.33
2023-05-17T18:39:35.257Z,1.40
2023-05-17T18:49:35.154Z,1.38
2023-05-17T18:57:45.460Z,1.40
2023-05-17T19:01:35.528Z,1.40
2023-05-17T19:04:37.693Z,1.10
2023-05-17T19:07:35.113Z,1.30
2023-05-17T19:10:34.790Z,1.65
2023-05-17T19:16:05.263Z,1.52
2023-05-17T19:21:40.419Z,1.50
2023-05-17T19:30:45.463Z,1.67
2023-05-17T19:33:43.341Z,1.90
2023-05-17T19:36:44.027Z,1.20
2023-05-17T19:39:37.288Z,1.20
2023-05-17T19:45:35.684Z,1.40
2023-05-17T19:49:22.466Z,1.20
2023-05-17T19:51:37.993Z,1.40
2023-05-17T19:54:37.394Z,1.42
2023-05-17T19:57:36.973Z,1.23
2023-05-17T20:00:09.164Z,1.10
2023-05-17T20:04:38.084Z,1.67
2023-05-17T20:05:41.678Z,1.30
2023-05-17T20:11:10.614Z,1.40
2023-05-17T20:13:42.544Z,1.20
2023-05-17T20:16:44.895Z,1.45
2023-05-17T20:19:41.738Z,1.27
2023-05-17T20:22:10.915Z,1.58
2023-05-17T20:24:39.924Z,1.52
2023-05-17T20:27:09.277Z,1.50
2023-05-17T20:38:43.498Z,1.35
2023-05-17T20:44:44.805Z,1.20
2023-05-17T20:50:43.857Z,1.00
2023-05-17T20:54:16.028Z,1.10
2023-05-17T20:56:45.643Z,1.90
2023-05-17T20:59:20.931Z,1.30
2023-05-17T21:02:46.078Z,1.30
2023-05-17T21:05:19.457Z,1.23
2023-05-17T21:08:13.823Z,1.50
2023-05-17T21:10:47.779Z,1.70
2023-05-17T21:20:42.219Z,1.38
2023-05-17T21:36:48.516Z,1.60
2023-05-17T21:39:17.349Z,1.92
2023-05-17T21:41:45.794Z,1.60
2023-05-17T21:46:46.878Z,1.92
2023-05-17T21:49:45.784Z,1.85
2023-05-17T21:52:14.233Z,1.80
2023-05-17T21:54:46.335Z,1.50
2023-05-17T21:57:15.037Z,1.95
2023-05-17T21:59:53.888Z,2.10
2023-05-17T22:02:54.804Z,2.10
2023-05-17T22:05:44.820Z,1.70
2023-05-17T22:08:15.858Z,1.95
2023-05-17T22:24:46.259Z,1.95
2023-05-17T22:29:47.733Z,1.80
2023-05-17T22:40:15.878Z,2.35
2023-05-17T22:42:49.489Z,2.25
2023-05-17T22:48:58.120Z,2.13
2023-05-17T23:47:51.432Z,2.40
2023-05-17T23:53:29.718Z,3.05
